Time;durP1;ratioP1;P1;durP2;ratioP2;P2;SDS_P1;SDS_P2;PMS_P1;PMS_P2;Temp;Humidity;BMP_temperature;BMP_pressure;BME280_temperature;BME280_humidity;BME280_pressure;Samples;Min_cycle;Max_cycle;Signal;HPM_P1;HPM_P2
2022/12/18 00:02:15;;;;;;;104.15;27.77;;;-1.50;99.90;;;;;;5098917;28;20115;-70
2022/12/18 00:04:41;;;;;;;100.78;28.63;;;-1.20;99.90;;;;;;5099026;28;20071;-70
2022/12/18 00:07:07;;;;;;;106.57;28.33;;;-1.10;99.90;;;;;;5099171;28;20370;-70
2022/12/18 00:09:33;;;;;;;101.97;27.58;;;-1.20;99.90;;;;;;5098869;28;20083;-70
2022/12/18 00:11:58;;;;;;;111.25;29.25;;;-1.10;99.90;;;;;;5116945;28;20100;-70
2022/12/18 00:14:24;;;;;;;107.20;28.42;;;-1.20;99.90;;;;;;5116909;28;20039;-70
2022/12/18 00:16:50;;;;;;;96.82;27.83;;;-1.20;99.90;;;;;;5116939;28;20085;-70
2022/12/18 00:19:15;;;;;;;93.75;28.05;;;-1.30;99.90;;;;;;5116571;28;20036;-70
2022/12/18 00:21:42;;;;;;;103.25;28.90;;;-1.30;99.90;;;;;;5116802;28;20039;-70
2022/12/18 00:24:09;;;;;;;99.70;28.38;;;-1.30;99.90;;;;;;5116723;28;20172;-70
2022/12/18 00:26:37;;;;;;;92.78;27.40;;;-1.20;99.90;;;;;;5117025;28;20179;-70
2022/12/18 00:29:10;;;;;;;109.43;28.42;;;-1.20;99.90;;;;;;5116808;28;20039;-70
2022/12/18 00:31:37;;;;;;;106.28;29.08;;;-1.20;99.90;;;;;;5099054;28;20093;-70
2022/12/18 00:34:03;;;;;;;110.00;28.75;;;-1.50;99.90;;;;;;5092811;28;20087;-70
2022/12/18 00:36:34;;;;;;;102.43;27.98;;;-1.40;99.90;;;;;;5102161;28;20484;-70
2022/12/18 00:39:01;;;;;;;103.65;27.95;;;-1.40;99.90;;;;;;5137110;28;20096;-70
2022/12/18 00:44:16;;;;;;;104.57;27.05;;;-1.60;99.90;;;;;;5119765;28;20043;-70
2022/12/18 00:46:42;;;;;;;97.07;28.08;;;-1.70;99.90;;;;;;5137192;28;20034;-70
2022/12/18 00:49:08;;;;;;;102.13;28.05;;;-1.40;99.90;;;;;;5137164;28;20031;-70
2022/12/18 00:51:34;;;;;;;107.07;28.08;;;-1.40;99.90;;;;;;5137010;28;20042;-70
2022/12/18 00:54:00;;;;;;;107.60;30.20;;;-1.60;99.90;;;;;;5137265;28;20047;-70
2022/12/18 00:56:26;;;;;;;115.88;32.70;;;-1.50;99.90;;;;;;5102080;28;20035;-70
2022/12/18 00:58:51;;;;;;;106.05;30.95;;;-1.40;99.90;;;;;;5137254;28;20035;-70
2022/12/18 01:01:17;;;;;;;96.90;28.50;;;-1.30;99.90;;;;;;5119019;28;20046;-71
2022/12/18 01:03:45;;;;;;;101.25;28.00;;;-1.20;99.90;;;;;;5136973;28;20043;-70
2022/12/18 01:06:12;;;;;;;91.05;27.13;;;-1.30;99.90;;;;;;5137142;28;20035;-70
2022/12/18 01:08:38;;;;;;;99.32;27.05;;;-1.30;99.90;;;;;;5118535;28;20089;-70
2022/12/18 01:11:19;;;;;;;96.72;28.63;;;-1.30;99.90;;;;;;5118815;28;20062;-70
2022/12/18 01:13:46;;;;;;;96.03;28.33;;;-1.40;99.90;;;;;;5119779;28;20125;-70
2022/12/18 01:16:14;;;;;;;90.50;26.10;;;-1.50;99.90;;;;;;5118708;28;20043;-70
2022/12/18 01:18:40;;;;;;;97.10;25.98;;;-1.70;99.90;;;;;;5136526;28;20035;-70
2022/12/18 01:21:12;;;;;;;99.82;27.52;;;-1.70;99.90;;;;;;5118878;28;20046;-71
2022/12/18 01:23:37;;;;;;;107.95;29.38;;;-1.60;99.90;;;;;;5118914;28;20063;-70
2022/12/18 01:26:11;;;;;;;91.15;26.98;;;-1.50;99.90;;;;;;5136666;27;20071;-70
2022/12/18 01:28:39;;;;;;;104.85;28.15;;;-1.50;99.90;;;;;;5121920;27;20039;-73
2022/12/18 01:31:17;;;;;;;100.80;26.20;;;-1.80;99.90;;;;;;5122309;27;20070;-69
2022/12/18 01:33:44;;;;;;;101.07;27.52;;;-2.10;99.90;;;;;;5140566;27;20104;-70
2022/12/18 01:36:19;;;;;;;103.00;28.08;;;-1.90;99.90;;;;;;5140498;27;20050;-70
2022/12/18 01:38:45;;;;;;;92.18;28.05;;;-1.90;99.90;;;;;;5105159;27;20135;-70
2022/12/18 01:41:11;;;;;;;98.78;28.27;;;-1.80;99.90;;;;;;5140503;27;20049;-70
2022/12/18 01:43:51;;;;;;;110.72;28.55;;;-1.80;99.90;;;;;;5105240;27;20078;-70
2022/12/18 01:46:19;;;;;;;95.63;27.42;;;-1.80;99.90;;;;;;5121933;27;20119;-71
2022/12/18 01:48:47;;;;;;;103.97;28.50;;;-1.90;99.90;;;;;;5139845;27;20039;-70
2022/12/18 01:51:13;;;;;;;100.30;26.85;;;-1.80;99.90;;;;;;5139955;27;20479;-69
2022/12/18 01:53:41;;;;;;;101.85;29.13;;;-2.10;99.90;;;;;;5140091;27;20035;-70
2022/12/18 01:56:08;;;;;;;100.28;26.63;;;-2.10;99.90;;;;;;5140198;27;20090;-70
2022/12/18 01:58:56;;;;;;;97.82;26.88;;;-2.20;99.90;;;;;;5140150;27;20096;-70
2022/12/18 02:01:24;;;;;;;93.28;26.80;;;-2.20;99.90;;;;;;5121781;27;20042;-70
2022/12/18 02:03:49;;;;;;;109.53;27.95;;;-2.00;99.90;;;;;;5139630;27;20043;-70
2022/12/18 02:06:36;;;;;;;92.32;27.25;;;-1.90;99.90;;;;;;5139931;27;20035;-70
2022/12/18 02:09:06;;;;;;;97.85;28.00;;;-1.90;99.90;;;;;;5105263;27;20063;-70
2022/12/18 02:11:52;;;;;;;97.97;27.73;;;-2.00;99.90;;;;;;5121629;27;20047;-70
2022/12/18 02:14:29;;;;;;;103.43;28.30;;;-2.00;99.90;;;;;;5139795;27;20035;-70
2022/12/18 02:17:03;;;;;;;101.20;27.63;;;-1.90;99.90;;;;;;5121583;27;20335;-70
2022/12/18 02:19:52;;;;;;;93.35;28.88;;;-2.00;99.90;;;;;;5139388;27;20099;-70
2022/12/18 02:22:21;;;;;;;102.25;27.67;;;-2.10;99.90;;;;;;5139780;27;20075;-70
2022/12/18 02:25:06;;;;;;;93.85;26.52;;;-2.10;99.90;;;;;;5121204;27;20436;-70
2022/12/18 02:27:33;;;;;;;94.93;25.63;;;-2.00;99.90;;;;;;5139589;27;20039;-70
2022/12/18 02:30:03;;;;;;;93.20;26.35;;;-1.90;99.90;;;;;;5139271;27;20135;-70
2022/12/18 02:32:34;;;;;;;106.00;28.10;;;-1.80;99.90;;;;;;5139412;27;20039;-70
2022/12/18 02:35:02;;;;;;;94.90;26.35;;;-2.00;99.90;;;;;;5121261;27;20039;-70
2022/12/18 02:37:29;;;;;;;94.35;26.38;;;-1.60;99.90;;;;;;5139425;27;20046;-70
2022/12/18 02:39:57;;;;;;;96.50;26.85;;;-2.10;99.90;;;;;;5137963;27;20056;-70
2022/12/18 02:42:23;;;;;;;102.43;27.02;;;-2.10;99.90;;;;;;5139022;27;20039;-70
2022/12/18 02:44:51;;;;;;;101.13;28.92;;;-1.90;99.90;;;;;;5138649;27;20031;-71
2022/12/18 02:47:20;;;;;;;99.07;27.05;;;-1.80;99.90;;;;;;5139187;27;20039;-70
2022/12/18 02:50:07;;;;;;;103.45;27.85;;;-1.90;99.90;;;;;;5138696;27;20039;-70
2022/12/18 02:53:00;;;;;;;110.25;28.52;;;-2.10;99.90;;;;;;5121012;27;20027;-70
2022/12/18 02:55:47;;;;;;;108.38;27.98;;;-2.30;99.90;;;;;;5139051;27;20062;-70
2022/12/18 02:58:25;;;;;;;;;;;-2.20;99.90;;;;;;5139579;27;20115;-70
2022/12/18 03:01:02;;;;;;;113.65;28.63;;;-2.40;99.90;;;;;;5138888;27;19915;-70
2022/12/18 03:03:44;;;;;;;112.80;30.08;;;-2.30;99.90;;;;;;5138714;27;20035;-70
2022/12/18 03:06:21;;;;;;;96.72;27.13;;;-2.20;99.90;;;;;;5138811;27;20039;-70
2022/12/18 03:08:50;;;;;;;101.97;28.38;;;-2.10;99.90;;;;;;5138363;27;20059;-70
2022/12/18 03:12:22;;;;;;;101.78;27.83;;;-2.10;99.90;;;;;;5120033;27;20434;-70
2022/12/18 03:14:03;;;;;;;109.27;30.47;;;-2.10;99.90;;;;;;5138230;27;20339;-70
2022/12/18 03:16:33;;;;;;;91.10;28.27;;;-2.00;99.90;;;;;;5120331;27;20047;-70
2022/12/18 03:19:03;;;;;;;102.15;29.85;;;-2.00;99.90;;;;;;5137598;27;20321;-70
2022/12/18 03:21:38;;;;;;;99.18;29.05;;;-2.00;99.90;;;;;;5120210;27;20115;-70
2022/12/18 03:24:07;;;;;;;98.18;30.65;;;-1.90;99.90;;;;;;5138204;27;20043;-70
2022/12/18 03:26:35;;;;;;;110.03;30.73;;;-1.70;99.90;;;;;;5138054;27;20122;-70
2022/12/18 03:29:07;;;;;;;101.68;30.50;;;-1.60;99.90;;;;;;5086581;27;20039;-70
2022/12/18 03:31:37;;;;;;;97.63;28.02;;;-1.60;99.90;;;;;;5138365;27;20138;-70
2022/12/18 03:34:08;;;;;;;98.80;28.02;;;-1.60;99.90;;;;;;5138332;27;20427;-70
2022/12/18 03:36:34;;;;;;;88.13;25.67;;;-1.80;99.90;;;;;;5119812;27;20038;-70
2022/12/18 03:39:00;;;;;;;98.30;29.00;;;-1.90;99.90;;;;;;5138241;27;20043;-70
2022/12/18 03:42:05;;;;;;;100.53;28.38;;;-1.80;99.90;;;;;;5137717;27;20047;-70
2022/12/18 03:44:56;;;;;;;94.40;29.42;;;-1.70;99.90;;;;;;5092266;27;20082;-70
2022/12/18 03:47:32;;;;;;;101.40;27.52;;;-1.90;99.90;;;;;;5119625;27;20043;-70
2022/12/18 03:50:00;;;;;;;96.72;28.80;;;-2.00;99.90;;;;;;5118912;27;20035;-70
2022/12/18 03:52:35;;;;;;;97.07;27.70;;;-2.00;99.90;;;;;;5137864;27;20468;-70
2022/12/18 03:55:03;;;;;;;94.63;27.83;;;-2.00;99.90;;;;;;5137921;27;20094;-70
2022/12/18 03:57:31;;;;;;;100.82;28.08;;;-2.10;99.90;;;;;;5137753;27;20031;-70
2022/12/18 04:00:09;;;;;;;94.20;28.70;;;-2.20;99.90;;;;;;5119773;27;20035;-70
2022/12/18 04:02:39;;;;;;;98.63;28.00;;;-2.10;99.90;;;;;;5137420;27;20050;-70
2022/12/18 04:05:08;;;;;;;102.20;26.45;;;-2.10;99.90;;;;;;5137697;27;20046;-70
2022/12/18 04:07:35;;;;;;;99.10;27.83;;;-2.30;99.90;;;;;;5119658;27;20043;-70
2022/12/18 04:10:03;;;;;;;92.70;26.20;;;-2.30;99.90;;;;;;5137572;27;20059;-70
2022/12/18 04:12:29;;;;;;;102.70;28.33;;;-2.30;99.90;;;;;;5119278;28;20039;-70
2022/12/18 04:14:55;;;;;;;87.50;25.63;;;-2.20;99.90;;;;;;5119486;28;20096;-70
2022/12/18 04:17:22;;;;;;;94.47;27.58;;;-2.30;99.90;;;;;;5137702;28;20049;-70
2022/12/18 04:19:48;;;;;;;93.53;26.75;;;-2.50;99.90;;;;;;5118799;28;20035;-70
2022/12/18 04:22:14;;;;;;;84.80;26.48;;;-2.50;99.90;;;;;;5137345;28;20061;-70
2022/12/18 04:24:39;;;;;;;83.45;25.27;;;-2.40;99.90;;;;;;5137157;28;20035;-70
2022/12/18 04:27:05;;;;;;;97.88;27.00;;;-2.40;99.90;;;;;;5137339;28;20091;-70
2022/12/18 04:29:31;;;;;;;88.15;27.02;;;-2.50;99.90;;;;;;5137300;28;20039;-70
2022/12/18 04:31:56;;;;;;;98.05;28.13;;;-2.40;99.90;;;;;;5137252;28;20038;-70
2022/12/18 04:34:22;;;;;;;92.18;26.23;;;-2.40;99.90;;;;;;5119303;28;20047;-70
2022/12/18 04:36:48;;;;;;;93.18;26.38;;;-2.30;99.90;;;;;;5137233;28;20039;-70
2022/12/18 04:39:18;;;;;;;88.10;24.80;;;-2.20;99.90;;;;;;5137522;28;20042;-70
2022/12/18 04:41:44;;;;;;;77.50;23.50;;;-2.20;99.80;;;;;;5102741;28;20047;-70
2022/12/18 04:44:10;;;;;;;87.32;25.60;;;-2.10;99.60;;;;;;5137362;28;20054;-70
2022/12/18 04:46:36;;;;;;;83.07;27.67;;;-2.30;99.50;;;;;;5119174;28;20039;-70
2022/12/18 04:49:01;;;;;;;97.45;25.63;;;-2.30;99.40;;;;;;5118514;28;20134;-70
2022/12/18 04:51:27;;;;;;;92.35;26.02;;;-2.20;99.50;;;;;;5137232;28;20096;-70
2022/12/18 04:53:53;;;;;;;81.45;26.13;;;-2.30;99.20;;;;;;5101863;28;20122;-70
2022/12/18 04:56:19;;;;;;;81.53;23.63;;;-2.30;99.50;;;;;;5137084;28;20048;-70
2022/12/18 04:58:45;;;;;;;85.38;26.00;;;-2.70;99.30;;;;;;5119046;28;20042;-70
2022/12/18 05:01:12;;;;;;;98.25;26.80;;;-2.70;99.80;;;;;;5102212;28;20039;-70
2022/12/18 05:03:39;;;;;;;83.75;24.55;;;-2.60;99.70;;;;;;5140567;27;20061;-70
2022/12/18 05:06:05;;;;;;;78.85;25.77;;;-2.50;99.70;;;;;;5141076;27;20046;-70
2022/12/18 05:08:32;;;;;;;79.93;22.98;;;-2.60;99.70;;;;;;5119084;28;20062;-70
2022/12/18 05:11:06;;;;;;;85.78;25.08;;;-2.70;99.50;;;;;;5120254;28;20147;-70
2022/12/18 05:13:33;;;;;;;85.15;23.88;;;-2.60;99.70;;;;;;5119647;28;20046;-70
2022/12/18 05:15:59;;;;;;;80.63;23.48;;;-2.40;99.70;;;;;;5120280;28;20123;-70
2022/12/18 05:18:25;;;;;;;82.47;24.20;;;-2.30;99.50;;;;;;5120073;27;20123;-71
2022/12/18 05:20:52;;;;;;;76.40;22.88;;;-2.50;99.20;;;;;;5101951;28;20173;-70
2022/12/18 05:23:19;;;;;;;88.05;24.95;;;-2.40;99.40;;;;;;5119071;28;20165;-70
2022/12/18 05:25:56;;;;;;;74.43;22.85;;;-2.30;99.30;;;;;;5119913;28;20047;-70
2022/12/18 05:28:23;;;;;;;85.68;25.45;;;-2.20;99.20;;;;;;5119895;28;20558;-70
2022/12/18 05:30:53;;;;;;;80.35;24.27;;;-2.30;99.10;;;;;;5119195;28;20062;-70
2022/12/18 05:33:20;;;;;;;73.82;22.42;;;-2.40;99.00;;;;;;5119871;28;20094;-70
2022/12/18 05:35:58;;;;;;;68.00;21.33;;;-2.50;99.00;;;;;;5119841;28;20122;-71
2022/12/18 05:38:25;;;;;;;69.10;21.88;;;-2.60;99.10;;;;;;5102055;28;20378;-70
2022/12/18 05:40:51;;;;;;;69.07;20.92;;;-2.60;99.30;;;;;;5101686;28;20039;-71
2022/12/18 05:43:19;;;;;;;69.55;22.27;;;-2.70;99.20;;;;;;5119654;28;20362;-70
2022/12/18 05:45:45;;;;;;;76.18;22.63;;;-2.70;99.30;;;;;;5101772;28;20105;-70
2022/12/18 05:48:10;;;;;;;66.55;21.67;;;-2.60;99.40;;;;;;5119905;28;20032;-70
2022/12/18 05:50:38;;;;;;;77.05;21.90;;;-2.60;99.30;;;;;;5119083;28;20032;-70
2022/12/18 05:53:04;;;;;;;65.15;21.25;;;-2.40;99.30;;;;;;5118528;28;20038;-70
2022/12/18 05:55:38;;;;;;;68.85;22.05;;;-2.40;99.10;;;;;;5119548;28;20035;-69
2022/12/18 05:58:04;;;;;;;58.42;20.30;;;-2.40;99.00;;;;;;5119539;28;20082;-70
2022/12/18 06:00:31;;;;;;;67.95;21.80;;;-2.30;99.10;;;;;;5118358;28;20043;-70
2022/12/18 06:02:58;;;;;;;72.50;21.52;;;-2.30;99.00;;;;;;5119251;28;20075;-70
2022/12/18 06:05:24;;;;;;;60.47;21.05;;;-2.20;98.90;;;;;;5119161;27;20088;-71
2022/12/18 06:07:50;;;;;;;70.72;21.35;;;-2.20;98.70;;;;;;5119302;27;20472;-71
2022/12/18 06:10:16;;;;;;;62.97;20.38;;;-2.30;98.90;;;;;;5139896;27;20086;-71
2022/12/18 06:12:42;;;;;;;54.90;19.20;;;-2.50;98.60;;;;;;5139513;27;20313;-70
2022/12/18 06:15:08;;;;;;;62.60;19.50;;;-2.50;98.90;;;;;;5139825;27;20050;-70
2022/12/18 06:17:34;;;;;;;57.85;19.42;;;-2.40;98.90;;;;;;5121474;27;20035;-71
2022/12/18 06:20:00;;;;;;;62.63;20.35;;;-2.40;98.90;;;;;;5139044;27;20035;-71
2022/12/18 06:22:26;;;;;;;61.53;19.63;;;-2.40;98.70;;;;;;5121967;27;20339;-70
2022/12/18 06:24:52;;;;;;;70.22;21.77;;;-2.40;98.60;;;;;;5121090;27;20121;-70
2022/12/18 06:27:18;;;;;;;55.72;19.63;;;-2.50;98.70;;;;;;5139464;27;20412;-70
2022/12/18 06:29:44;;;;;;;60.30;19.08;;;-2.40;98.90;;;;;;5139271;27;20420;-70
2022/12/18 06:32:09;;;;;;;57.53;21.63;;;-2.40;98.90;;;;;;5139499;27;20039;-70
2022/12/18 06:34:37;;;;;;;60.15;19.77;;;-2.40;98.80;;;;;;5139430;27;20423;-70
2022/12/18 06:37:03;;;;;;;59.15;19.65;;;-2.30;98.80;;;;;;5121367;27;20326;-70
2022/12/18 06:39:29;;;;;;;57.83;20.40;;;-2.30;98.60;;;;;;5121014;27;20091;-70
2022/12/18 06:41:54;;;;;;;48.80;18.30;;;-2.40;98.60;;;;;;5139145;27;20039;-70
2022/12/18 06:44:20;;;;;;;58.13;17.85;;;-2.30;98.70;;;;;;5139123;27;20036;-70
2022/12/18 06:46:46;;;;;;;56.63;18.30;;;-2.40;98.50;;;;;;5139187;27;20335;-70
2022/12/18 06:49:12;;;;;;;53.80;18.67;;;-2.50;98.60;;;;;;5138658;27;20035;-70
2022/12/18 06:51:37;;;;;;;48.88;18.88;;;-2.40;98.60;;;;;;5139081;27;20043;-70
2022/12/18 06:54:03;;;;;;;53.30;19.02;;;-2.40;98.70;;;;;;5120684;27;20031;-70
2022/12/18 06:56:30;;;;;;;48.85;18.40;;;-2.30;98.70;;;;;;5120573;27;20428;-70
2022/12/18 06:58:55;;;;;;;56.03;20.15;;;-2.40;98.50;;;;;;5138956;27;20050;-70
2022/12/18 07:01:21;;;;;;;53.35;17.67;;;-2.50;98.50;;;;;;5138805;27;20031;-70
2022/12/18 07:03:52;;;;;;;50.10;17.67;;;-2.50;98.70;;;;;;5138883;27;20039;-70
2022/12/18 07:06:20;;;;;;;51.28;18.92;;;-2.40;98.70;;;;;;5138649;27;20087;-70
2022/12/18 07:08:47;;;;;;;55.88;18.63;;;-2.50;98.50;;;;;;5138385;27;20055;-70
2022/12/18 07:11:14;;;;;;;53.97;19.33;;;-2.40;98.60;;;;;;5120475;27;20043;-70
2022/12/18 07:13:39;;;;;;;45.33;17.13;;;-2.40;98.60;;;;;;5138615;27;20047;-70
2022/12/18 07:16:10;;;;;;;54.40;17.33;;;-2.60;98.50;;;;;;5138316;27;20053;-70
2022/12/18 07:18:37;;;;;;;46.63;17.55;;;-2.70;98.60;;;;;;5137837;27;20420;-70
2022/12/18 07:21:04;;;;;;;50.00;17.45;;;-2.80;98.80;;;;;;5138519;27;20070;-70
2022/12/18 07:23:31;;;;;;;53.78;17.77;;;-2.70;98.90;;;;;;5120128;27;20432;-70
2022/12/18 07:26:02;;;;;;;51.60;19.08;;;-2.60;98.90;;;;;;5137489;27;20049;-70
2022/12/18 07:28:28;;;;;;;44.22;16.10;;;-2.50;98.70;;;;;;5137858;27;20035;-70
2022/12/18 07:30:54;;;;;;;43.33;16.85;;;-2.50;98.70;;;;;;5138176;27;20046;-70
2022/12/18 07:33:19;;;;;;;41.53;15.25;;;-2.50;98.70;;;;;;5138023;27;20039;-70
2022/12/18 07:35:45;;;;;;;42.92;16.13;;;-2.50;98.70;;;;;;5138056;27;20092;-70
2022/12/18 07:38:10;;;;;;;42.88;16.63;;;-2.40;98.70;;;;;;5138139;27;20035;-70
2022/12/18 07:40:36;;;;;;;44.35;16.02;;;-2.30;98.60;;;;;;5119743;27;20085;-70
2022/12/18 07:43:02;;;;;;;45.05;16.73;;;-2.30;98.50;;;;;;5137671;27;20054;-70
2022/12/18 07:45:30;;;;;;;50.40;16.77;;;-2.30;98.40;;;;;;5137812;27;20051;-70
2022/12/18 07:47:56;;;;;;;42.83;15.93;;;-2.20;98.50;;;;;;5137689;27;20046;-70
2022/12/18 07:50:21;;;;;;;45.50;16.75;;;-2.20;98.50;;;;;;5137345;27;20031;-70
2022/12/18 07:52:47;;;;;;;44.60;16.48;;;-2.20;98.30;;;;;;5137652;27;20046;-70
2022/12/18 07:55:13;;;;;;;50.67;16.30;;;-2.30;98.10;;;;;;5137604;27;20031;-70
2022/12/18 07:57:39;;;;;;;38.22;15.63;;;-2.50;98.10;;;;;;5137760;27;20039;-70
2022/12/18 08:00:05;;;;;;;43.03;16.15;;;-2.50;98.20;;;;;;5137570;27;20065;-70
2022/12/18 08:02:31;;;;;;;39.92;15.15;;;-2.50;98.20;;;;;;5137686;27;20035;-70
2022/12/18 08:04:57;;;;;;;37.05;15.00;;;-2.50;98.40;;;;;;5137598;27;20092;-70
2022/12/18 08:07:23;;;;;;;45.08;16.77;;;-2.40;98.50;;;;;;5102809;28;20373;-71
2022/12/18 08:09:49;;;;;;;40.05;15.02;;;-2.40;98.40;;;;;;5119017;27;20051;-70
2022/12/18 08:12:14;;;;;;;45.03;17.45;;;-2.30;98.40;;;;;;5137232;27;20090;-70
2022/12/18 08:14:40;;;;;;;41.45;15.70;;;-2.30;98.40;;;;;;5119180;28;20050;-70
2022/12/18 08:17:06;;;;;;;46.00;18.10;;;-2.30;98.30;;;;;;5137401;28;20038;-71
2022/12/18 08:19:31;;;;;;;46.95;17.05;;;-2.30;98.40;;;;;;5101826;28;20482;-70
2022/12/18 08:21:57;;;;;;;41.00;15.30;;;-2.50;98.30;;;;;;5137367;28;20118;-70
2022/12/18 08:24:23;;;;;;;43.67;16.52;;;-2.40;98.50;;;;;;5137230;28;20039;-69
2022/12/18 08:26:48;;;;;;;38.83;15.18;;;-2.30;98.50;;;;;;5119244;28;20035;-70
2022/12/18 08:29:14;;;;;;;42.03;16.60;;;-2.40;98.50;;;;;;5118939;28;20122;-70
2022/12/18 08:31:40;;;;;;;43.80;16.10;;;-2.40;98.30;;;;;;5137241;28;20035;-70
2022/12/18 08:34:05;;;;;;;49.50;18.25;;;-2.40;98.30;;;;;;5119376;28;20080;-70
2022/12/18 08:36:31;;;;;;;46.30;16.33;;;-2.40;98.20;;;;;;5120809;27;20035;-70
2022/12/18 08:38:57;;;;;;;44.50;17.15;;;-2.50;98.30;;;;;;5141405;27;20050;-70
2022/12/18 08:41:23;;;;;;;42.67;16.92;;;-2.60;98.40;;;;;;5141561;27;20039;-69
2022/12/18 08:46:41;;;;;;;44.85;17.38;;;-2.40;98.50;;;;;;5125904;27;20068;-70
2022/12/18 08:49:07;;;;;;;44.42;16.67;;;-2.40;98.40;;;;;;5140867;27;20389;-70
2022/12/18 08:51:34;;;;;;;42.03;16.73;;;-2.40;98.40;;;;;;5141253;27;20333;-70
2022/12/18 08:54:00;;;;;;;43.15;16.98;;;-2.30;98.40;;;;;;5123121;27;20027;-70
2022/12/18 08:56:26;;;;;;;41.03;17.48;;;-2.30;98.20;;;;;;5141058;27;20122;-69
2022/12/18 08:58:53;;;;;;;44.60;15.95;;;-2.30;98.20;;;;;;5141294;27;20035;-69
2022/12/18 09:01:20;;;;;;;41.05;16.10;;;-2.30;98.30;;;;;;5140932;27;20031;-70
2022/12/18 09:03:45;;;;;;;37.83;15.70;;;-2.30;98.30;;;;;;5141187;27;20035;-67
2022/12/18 09:06:15;;;;;;;43.97;16.50;;;-2.20;98.40;;;;;;5122701;27;20042;-65
2022/12/18 09:08:41;;;;;;;40.47;15.27;;;-2.10;98.40;;;;;;5140500;27;20050;-67
2022/12/18 09:11:14;;;;;;;40.85;15.55;;;-2.10;98.40;;;;;;5122644;27;20078;-66
2022/12/18 09:13:40;;;;;;;38.35;16.17;;;-2.00;98.40;;;;;;5140812;27;20039;-66
2022/12/18 09:16:05;;;;;;;38.15;16.80;;;-2.10;98.20;;;;;;5140942;27;20050;-65
2022/12/18 09:18:31;;;;;;;40.97;16.40;;;-2.20;98.30;;;;;;5122304;27;20043;-66
2022/12/18 09:20:57;;;;;;;40.72;16.50;;;-2.20;98.50;;;;;;5122244;27;20039;-66
2022/12/18 09:23:22;;;;;;;39.30;15.50;;;-2.10;98.50;;;;;;5141200;27;20313;-66
2022/12/18 09:25:48;;;;;;;37.83;15.52;;;-2.00;98.40;;;;;;5149118;27;20318;-66
2022/12/18 09:28:16;;;;;;;36.70;14.48;;;-1.90;98.50;;;;;;5130872;27;20035;-66
2022/12/18 09:30:45;;;;;;;36.47;14.38;;;-1.70;98.60;;;;;;5149172;27;20047;-66
2022/12/18 09:33:11;;;;;;;36.08;15.52;;;-1.70;98.40;;;;;;5150425;27;20395;-66
2022/12/18 09:35:38;;;;;;;37.28;14.68;;;-1.70;98.40;;;;;;5132402;27;20043;-65
2022/12/18 09:38:04;;;;;;;32.25;14.20;;;-1.60;98.40;;;;;;5148926;27;20119;-66
2022/12/18 09:40:36;;;;;;;34.78;13.85;;;-1.60;98.60;;;;;;5132508;27;20030;-65
2022/12/18 09:43:05;;;;;;;36.83;15.50;;;-1.40;98.50;;;;;;5147238;27;20031;-67
2022/12/18 09:45:43;;;;;;;34.25;14.35;;;-1.50;98.50;;;;;;5130921;27;20122;-67
2022/12/18 09:48:35;;;;;;;38.33;13.82;;;-1.40;98.50;;;;;;5148178;27;20035;-67
2022/12/18 09:51:10;;;;;;;36.10;14.60;;;-1.30;98.50;;;;;;5127844;27;20031;-67
2022/12/18 09:53:40;;;;;;;31.10;13.00;;;-1.20;98.40;;;;;;5148724;27;20050;-68
2022/12/18 09:56:09;;;;;;;32.83;13.68;;;-1.20;98.40;;;;;;5129791;27;20047;-67
2022/12/18 09:58:44;;;;;;;32.25;12.98;;;-1.40;98.20;;;;;;5131342;27;20034;-67
2022/12/18 10:01:18;;;;;;;28.13;12.35;;;-1.40;98.40;;;;;;5140431;27;20039;-66
2022/12/18 10:03:43;;;;;;;28.10;11.60;;;-1.40;98.50;;;;;;5121669;27;20035;-67
2022/12/18 10:06:19;;;;;;;26.77;11.68;;;-1.50;98.40;;;;;;5139721;27;20039;-67
2022/12/18 10:09:03;;;;;;;30.75;12.13;;;-1.40;98.50;;;;;;5139702;27;20344;-67
2022/12/18 10:11:34;;;;;;;30.00;12.75;;;-1.30;98.60;;;;;;5139537;27;20050;-67
2022/12/18 10:14:12;;;;;;;27.98;12.00;;;-1.30;98.50;;;;;;5139844;27;20070;-66
2022/12/18 10:16:56;;;;;;;26.08;12.10;;;-1.10;98.60;;;;;;5104166;27;20039;-66
2022/12/18 10:19:37;;;;;;;26.23;11.13;;;-1.10;98.50;;;;;;5139395;27;20046;-67
2022/12/18 10:22:08;;;;;;;29.33;11.05;;;-0.90;98.50;;;;;;5121120;27;20419;-67
2022/12/18 10:24:45;;;;;;;23.33;10.32;;;-0.90;98.30;;;;;;5139398;27;20043;-66
2022/12/18 10:27:14;;;;;;;29.08;11.65;;;-0.90;98.40;;;;;;5121033;27;20043;-66
2022/12/18 10:29:42;;;;;;;26.17;10.55;;;-0.70;98.50;;;;;;5139316;27;20066;-65
2022/12/18 10:32:17;;;;;;;21.23;10.20;;;-0.60;98.30;;;;;;5120875;27;20081;-66
2022/12/18 10:34:48;;;;;;;23.13;10.75;;;-0.50;98.20;;;;;;5139161;27;20043;-66
2022/12/18 10:37:17;;;;;;;23.20;10.85;;;-0.50;98.20;;;;;;5139045;27;20049;-66
2022/12/18 10:39:44;;;;;;;22.08;10.95;;;-0.50;98.20;;;;;;5139147;27;20327;-66
2022/12/18 10:42:19;;;;;;;19.30;8.88;;;-0.50;98.30;;;;;;5139190;27;20091;-68
2022/12/18 10:44:45;;;;;;;23.30;9.48;;;-0.40;98.30;;;;;;5120457;27;20046;-66
2022/12/18 10:47:20;;;;;;;20.13;9.68;;;-0.30;98.40;;;;;;5139063;27;20039;-66
2022/12/18 10:49:52;;;;;;;18.95;9.25;;;-0.30;98.20;;;;;;5138598;27;20156;-66
2022/12/18 10:52:21;;;;;;;17.17;8.45;;;-0.50;98.20;;;;;;5149386;27;20430;-66
2022/12/18 10:54:58;;;;;;;18.98;9.02;;;-0.50;98.30;;;;;;5120557;27;20054;-66
2022/12/18 10:57:26;;;;;;;18.13;8.65;;;-0.50;98.30;;;;;;5138507;27;20054;-66
2022/12/18 10:59:54;;;;;;;16.48;7.93;;;-0.50;98.40;;;;;;5119670;27;20446;-66
2022/12/18 11:02:34;;;;;;;14.95;8.68;;;-0.70;98.30;;;;;;5138798;27;20057;-66
2022/12/18 11:05:00;;;;;;;16.23;8.70;;;-0.80;98.60;;;;;;5120482;27;20332;-66
2022/12/18 11:07:50;;;;;;;15.98;8.25;;;-0.80;98.70;;;;;;5120577;27;20324;-66
2022/12/18 11:10:25;;;;;;;19.63;7.88;;;-0.80;98.80;;;;;;5097574;28;20337;-66
2022/12/18 11:12:51;;;;;;;19.52;8.80;;;-0.70;98.70;;;;;;5097682;28;20036;-66
2022/12/18 11:15:25;;;;;;;21.00;8.63;;;-0.60;98.80;;;;;;5097500;28;20040;-66
2022/12/18 11:17:52;;;;;;;18.23;8.52;;;-0.60;98.70;;;;;;5097500;28;20115;-66
2022/12/18 11:20:34;;;;;;;18.02;8.30;;;-0.50;98.90;;;;;;5113911;27;20614;-65
2022/12/18 11:23:22;;;;;;;14.85;7.65;;;-0.40;98.80;;;;;;5113949;28;20051;-66
2022/12/18 11:25:59;;;;;;;15.70;7.85;;;-0.40;98.60;;;;;;5114278;28;20047;-66
2022/12/18 11:28:40;;;;;;;15.70;8.13;;;-0.50;98.50;;;;;;5114033;28;20420;-66
2022/12/18 11:31:20;;;;;;;18.50;7.97;;;-0.40;98.70;;;;;;5114300;28;20181;-67
2022/12/18 11:34:10;;;;;;;14.65;8.02;;;-0.30;98.80;;;;;;5112865;28;20110;-70
2022/12/18 11:36:42;;;;;;;16.27;7.78;;;-0.30;98.70;;;;;;5113199;28;20317;-65
2022/12/18 11:39:24;;;;;;;17.92;8.32;;;-0.20;99.10;;;;;;5114195;28;20079;-66
2022/12/18 11:42:11;;;;;;;19.08;9.13;;;-0.10;98.70;;;;;;5113109;28;20432;-66
2022/12/18 11:44:56;;;;;;;13.38;7.22;;;-0.20;98.50;;;;;;5113711;28;20047;-66
2022/12/18 11:47:43;;;;;;;15.13;6.22;;;-0.10;98.60;;;;;;5113672;28;20051;-66
2022/12/18 11:50:42;;;;;;;15.65;7.30;;;0.00;98.70;;;;;;5113322;28;20046;-66
2022/12/18 11:53:12;;;;;;;13.52;6.38;;;0.00;98.60;;;;;;5111862;28;20110;-66
2022/12/18 11:56:02;;;;;;;12.05;6.45;;;0.10;98.50;;;;;;5112643;28;20420;-66
2022/12/18 11:58:27;;;;;;;15.02;6.28;;;0.20;98.70;;;;;;5113618;28;20101;-66
2022/12/18 12:01:19;;;;;;;13.90;7.03;;;0.20;98.60;;;;;;5111485;28;20043;-68
2022/12/18 12:04:22;;;;;;;12.55;6.28;;;0.10;98.70;;;;;;5106470;28;20047;-66
2022/12/18 12:07:05;;;;;;;16.42;6.80;;;0.20;98.70;;;;;;5107249;28;20047;-65
2022/12/18 12:09:52;;;;;;;16.15;7.82;;;0.30;98.80;;;;;;5108770;28;20040;-66
2022/12/18 12:12:23;;;;;;;17.25;7.40;;;0.30;98.80;;;;;;5092150;28;20394;-67
2022/12/18 12:15:06;;;;;;;16.42;7.47;;;0.30;98.80;;;;;;5092878;28;20093;-67
2022/12/18 12:17:44;;;;;;;13.25;7.00;;;0.40;98.80;;;;;;5092677;28;20054;-66
2022/12/18 12:20:36;;;;;;;14.95;8.05;;;0.40;98.70;;;;;;5090858;28;20053;-66
2022/12/18 12:23:14;;;;;;;14.82;6.47;;;0.40;98.60;;;;;;5091283;28;20040;-67
2022/12/18 12:25:46;;;;;;;15.60;6.85;;;0.40;98.60;;;;;;5092498;28;20405;-67
2022/12/18 12:28:21;;;;;;;18.88;7.00;;;0.40;98.80;;;;;;5099058;28;20074;-68
2022/12/18 12:30:57;;;;;;;14.50;6.88;;;0.30;98.70;;;;;;5103597;28;20059;-66
2022/12/18 12:33:59;;;;;;;12.38;6.45;;;0.40;98.90;;;;;;5091872;28;20032;-67
2022/12/18 12:36:41;;;;;;;18.98;7.07;;;0.30;98.80;;;;;;5072652;28;20048;-67
2022/12/18 12:39:13;;;;;;;13.50;6.97;;;0.40;98.90;;;;;;5077412;28;20036;-66
2022/12/18 12:44:30;;;;;;;12.70;6.20;;;0.40;98.90;;;;;;5077972;28;20102;-67
2022/12/18 12:47:03;;;;;;;14.57;6.00;;;0.40;98.80;;;;;;5084002;28;20028;-67
2022/12/18 12:49:32;;;;;;;14.05;6.57;;;0.30;98.80;;;;;;5094190;28;20040;-68
2022/12/18 12:52:05;;;;;;;12.68;5.90;;;0.50;99.00;;;;;;5060839;28;20452;-66
2022/12/18 12:54:33;;;;;;;11.25;5.75;;;0.30;98.90;;;;;;5088555;28;20365;-66